createdAt,value
2022-11-02T00:00:21.367Z,26.80
2022-11-02T00:02:48.309Z,26.87
2022-11-02T00:05:15.484Z,28.60
2022-11-02T00:07:42.594Z,23.37
2022-11-02T00:10:10.081Z,29.33
2022-11-02T00:12:36.851Z,24.63
2022-11-02T00:15:04.414Z,24.67
2022-11-02T00:17:31.237Z,23.63
2022-11-02T00:19:58.146Z,21.70
2022-11-02T00:22:25.421Z,24.00
2022-11-02T00:24:52.593Z,19.20
2022-11-02T00:27:19.570Z,22.30
2022-11-02T00:29:46.337Z,28.37
2022-11-02T00:32:13.161Z,23.63
2022-11-02T00:34:39.965Z,22.80
2022-11-02T00:37:06.836Z,21.67
2022-11-02T00:39:33.801Z,25.90
2022-11-02T00:42:00.631Z,24.47
2022-11-02T00:44:27.387Z,26.27
2022-11-02T00:46:54.298Z,20.87
2022-11-02T00:49:21.272Z,23.73
2022-11-02T00:51:48.102Z,25.77
2022-11-02T00:54:15.876Z,21.63
2022-11-02T00:56:42.767Z,30.37
2022-11-02T00:59:09.669Z,25.00
2022-11-02T01:01:36.470Z,25.03
2022-11-02T01:04:03.522Z,22.87
2022-11-02T01:06:30.361Z,21.73
2022-11-02T01:08:57.177Z,21.80
2022-11-02T01:11:24.440Z,27.03
2022-11-02T01:13:52.331Z,19.30
2022-11-02T01:16:28.846Z,28.03
2022-11-02T01:18:57.139Z,29.30
2022-11-02T01:21:23.969Z,22.40
2022-11-02T01:23:50.848Z,17.80
2022-11-02T01:26:17.632Z,25.13
2022-11-02T01:28:44.479Z,13.53
2022-11-02T01:31:12.936Z,23.03
2022-11-02T01:33:43.378Z,20.93
2022-11-02T01:36:10.409Z,20.20
2022-11-02T01:38:37.226Z,21.40
2022-11-02T01:41:04.584Z,19.70
2022-11-02T01:43:35.709Z,26.03
2022-11-02T01:46:06.550Z,22.33
2022-11-02T01:48:35.089Z,22.13
2022-11-02T01:51:03.177Z,21.20
2022-11-02T01:53:30.526Z,26.10
2022-11-02T01:55:57.667Z,24.00
2022-11-02T01:58:24.756Z,26.57
2022-11-02T02:00:51.924Z,25.57
2022-11-02T02:03:21.490Z,21.23
2022-11-02T02:05:57.419Z,25.80
2022-11-02T02:08:25.269Z,24.37
2022-11-02T02:10:52.041Z,22.13
2022-11-02T02:13:19.250Z,22.63
2022-11-02T02:15:55.654Z,17.10
2022-11-02T02:18:45.371Z,21.70
2022-11-02T02:21:15.153Z,23.40
2022-11-02T02:23:45.477Z,16.13
2022-11-02T02:26:15.441Z,16.43
2022-11-02T02:28:45.334Z,13.10
2022-11-02T02:31:16.653Z,18.53
2022-11-02T02:34:04.558Z,18.33
2022-11-02T02:36:32.565Z,21.37
2022-11-02T02:39:13.097Z,23.50
2022-11-02T02:42:02.603Z,19.60
2022-11-02T02:44:33.163Z,25.63
2022-11-02T02:47:04.450Z,19.33
2022-11-02T02:49:52.797Z,28.40
2022-11-02T02:52:20.826Z,20.30
2022-11-02T02:54:47.997Z,22.30
2022-11-02T02:57:19.317Z,20.30
2022-11-02T02:59:51.400Z,22.90
2022-11-02T03:02:20.611Z,28.20
2022-11-02T03:04:47.958Z,23.93
2022-11-02T03:07:18.035Z,25.57
2022-11-02T03:09:47.276Z,22.63
2022-11-02T03:12:23.571Z,23.63
2022-11-02T03:14:50.445Z,18.83
2022-11-02T03:17:46.214Z,19.43
2022-11-02T03:20:25.792Z,20.23
2022-11-02T03:23:01.303Z,22.53
2022-11-02T03:25:37.434Z,19.83
2022-11-02T03:28:04.891Z,18.27
2022-11-02T03:30:35.880Z,17.27
2022-11-02T03:33:08.361Z,16.13
2022-11-02T03:35:43.469Z,14.67
2022-11-02T03:38:14.132Z,14.37
2022-11-02T03:40:43.683Z,18.03
2022-11-02T03:43:11.859Z,20.53
2022-11-02T03:45:40.435Z,18.13
2022-11-02T03:48:08.775Z,17.90
2022-11-02T03:50:37.572Z,18.53
2022-11-02T03:53:11.162Z,19.57
2022-11-02T03:55:41.278Z,13.03
2022-11-02T03:58:10.385Z,18.87
2022-11-02T04:00:38.557Z,17.10
2022-11-02T04:03:10.938Z,16.10
2022-11-02T04:05:44.056Z,25.53
2022-11-02T04:08:34.540Z,16.93
2022-11-02T04:11:24.417Z,21.93
2022-11-02T04:14:12.650Z,23.40
2022-11-02T04:16:42.296Z,25.10
2022-11-02T04:19:30.380Z,26.90
2022-11-02T04:22:21.912Z,23.53
2022-11-02T04:25:12.241Z,30.13
2022-11-02T04:27:40.361Z,22.47
2022-11-02T04:30:08.973Z,18.73
2022-11-02T04:32:58.085Z,24.43
2022-11-02T04:35:27.247Z,20.87
2022-11-02T04:38:13.382Z,26.40
2022-11-02T04:40:41.064Z,24.67
2022-11-02T04:43:08.988Z,25.53
2022-11-02T04:45:37.014Z,24.47
2022-11-02T04:48:05.400Z,26.40
2022-11-02T04:50:33.448Z,22.70
2022-11-02T04:53:02.024Z,22.03
2022-11-02T04:55:30.589Z,25.83
2022-11-02T04:57:58.302Z,30.63
2022-11-02T05:00:25.206Z,22.67
2022-11-02T05:02:53.488Z,22.47
2022-11-02T05:05:22.542Z,21.73
2022-11-02T05:07:51.419Z,22.00
2022-11-02T05:10:18.706Z,23.77
2022-11-02T05:12:47.464Z,29.03
2022-11-02T05:15:14.494Z,25.90
2022-11-02T05:17:41.702Z,24.87
2022-11-02T05:20:09.650Z,22.70
2022-11-02T05:22:36.407Z,25.07
2022-11-02T05:25:03.489Z,24.17
2022-11-02T05:27:30.893Z,23.73
2022-11-02T05:29:57.722Z,23.73
2022-11-02T05:32:24.686Z,33.37
2022-11-02T05:34:51.498Z,21.00
2022-11-02T05:37:19.215Z,26.27
2022-11-02T05:39:49.349Z,26.70
2022-11-02T05:42:17.661Z,30.97
2022-11-02T05:44:44.800Z,28.27
2022-11-02T05:47:11.584Z,25.57
2022-11-02T05:49:38.487Z,19.33
2022-11-02T05:52:05.336Z,25.43
2022-11-02T05:54:32.067Z,21.53
2022-11-02T05:56:58.947Z,19.63
2022-11-02T05:59:25.691Z,24.23
2022-11-02T06:01:53.104Z,25.00
2022-11-02T06:04:19.960Z,25.20
2022-11-02T06:06:46.778Z,20.27
2022-11-02T06:09:13.673Z,23.97
2022-11-02T06:11:40.503Z,25.83
2022-11-02T06:14:07.245Z,23.03
2022-11-02T06:16:34.107Z,29.90
2022-11-02T06:19:00.928Z,21.10
2022-11-02T06:21:27.858Z,21.40
2022-11-02T06:23:54.639Z,24.80
2022-11-02T06:26:21.483Z,20.93
2022-11-02T06:28:48.549Z,21.87
2022-11-02T06:31:17.590Z,24.30
2022-11-02T06:33:45.554Z,17.73
2022-11-02T06:36:12.486Z,20.73
2022-11-02T06:38:39.278Z,28.67
2022-11-02T06:41:06.974Z,32.57
2022-11-02T06:43:38.534Z,25.50
2022-11-02T06:46:05.685Z,20.23
2022-11-02T06:48:35.223Z,23.83
2022-11-02T06:51:03.015Z,27.07
2022-11-02T06:53:29.862Z,26.50
2022-11-02T06:55:57.609Z,26.60
2022-11-02T06:58:24.716Z,28.47
2022-11-02T07:00:56.656Z,30.67
2022-11-02T07:03:23.897Z,27.50
2022-11-02T07:05:53.942Z,27.50
2022-11-02T07:08:22.132Z,23.43
2022-11-02T07:10:49.062Z,24.53
2022-11-02T07:13:15.908Z,31.77
2022-11-02T07:15:42.837Z,28.03
2022-11-02T07:18:09.679Z,25.43
2022-11-02T07:20:36.789Z,24.43
2022-11-02T07:23:05.038Z,27.47
2022-11-02T07:25:33.242Z,26.90
2022-11-02T07:28:00.661Z,26.17
2022-11-02T07:30:28.662Z,27.37
2022-11-02T07:32:55.580Z,27.67
2022-11-02T07:35:22.652Z,25.67
2022-11-02T07:37:59.663Z,28.87
2022-11-02T07:40:27.177Z,26.97
2022-11-02T07:42:54.193Z,24.00
2022-11-02T07:45:32.319Z,26.87
2022-11-02T07:47:59.189Z,26.10
2022-11-02T07:50:27.250Z,29.70
2022-11-02T07:52:58.300Z,20.67
2022-11-02T07:55:26.511Z,25.03
2022-11-02T07:57:54.417Z,25.90
2022-11-02T08:00:21.319Z,25.60
2022-11-02T08:02:48.205Z,22.03
2022-11-02T08:05:15.134Z,24.13
2022-11-02T08:07:41.925Z,24.40
2022-11-02T08:10:08.919Z,25.40
2022-11-02T08:12:36.085Z,28.40
2022-11-02T08:15:07.347Z,24.23
2022-11-02T08:17:34.700Z,22.57
2022-11-02T08:20:01.472Z,26.10
2022-11-02T08:22:28.340Z,33.23
2022-11-02T08:24:55.133Z,26.07
2022-11-02T08:27:21.900Z,24.10
2022-11-02T08:29:48.698Z,27.60
2022-11-02T08:32:15.482Z,22.53
2022-11-02T08:34:42.257Z,22.97
2022-11-02T08:37:09.329Z,21.63
2022-11-02T08:39:36.052Z,27.00
2022-11-02T08:42:02.833Z,23.53
2022-11-02T08:44:29.707Z,22.00
2022-11-02T08:46:56.460Z,20.83
2022-11-02T08:49:23.356Z,16.73
2022-11-02T08:51:50.208Z,20.13
2022-11-02T08:54:17.030Z,17.20
2022-11-02T08:56:43.758Z,20.43
2022-11-02T08:59:10.690Z,17.37
2022-11-02T09:01:39.249Z,15.93
2022-11-02T09:04:06.252Z,17.17
2022-11-02T09:06:33.031Z,17.37
2022-11-02T09:08:59.904Z,14.60
2022-11-02T09:11:27.123Z,15.07
2022-11-02T09:13:56.808Z,18.07
2022-11-02T09:16:24.109Z,19.57
2022-11-02T09:18:50.878Z,15.07
2022-11-02T09:21:17.678Z,17.23
2022-11-02T09:23:44.585Z,19.77
2022-11-02T09:26:11.379Z,15.77
2022-11-02T09:28:38.142Z,12.03
2022-11-02T09:31:07.459Z,11.43
2022-11-02T09:33:38.303Z,11.93
2022-11-02T09:36:05.605Z,11.20
2022-11-02T09:38:32.916Z,8.60
2022-11-02T09:40:59.844Z,10.47
2022-11-02T09:43:48.032Z,9.03
2022-11-02T09:46:20.825Z,8.13
2022-11-02T09:49:06.177Z,8.37
2022-11-02T09:51:35.800Z,12.23
2022-11-02T09:54:05.668Z,9.67
2022-11-02T09:56:33.122Z,9.40
2022-11-02T09:59:01.648Z,8.13
2022-11-02T10:01:47.278Z,6.83
2022-11-02T10:04:14.246Z,7.73
2022-11-02T10:06:44.953Z,10.13
2022-11-02T10:09:21.487Z,8.03
2022-11-02T10:11:56.519Z,8.87
2022-11-02T10:14:25.709Z,6.30
2022-11-02T10:16:55.586Z,10.60
2022-11-02T10:19:26.285Z,10.40
2022-11-02T10:21:59.669Z,9.30
2022-11-02T10:24:36.226Z,10.27
2022-11-02T10:27:11.540Z,10.63
2022-11-02T10:29:47.505Z,7.07
2022-11-02T10:32:15.262Z,6.10
2022-11-02T10:34:43.399Z,9.57
2022-11-02T10:37:10.216Z,5.57
2022-11-02T10:39:46.664Z,8.77
2022-11-02T10:42:25.786Z,12.07
2022-11-02T10:44:58.537Z,11.83
2022-11-02T10:47:27.689Z,9.13
2022-11-02T10:49:57.612Z,9.67
2022-11-02T10:52:24.626Z,6.47
2022-11-02T10:54:51.762Z,5.83
2022-11-02T10:57:28.185Z,6.37
2022-11-02T11:00:13.792Z,5.30
2022-11-02T11:02:40.654Z,5.40
2022-11-02T11:05:14.458Z,10.63
2022-11-02T11:07:44.209Z,4.97
2022-11-02T11:10:15.780Z,8.07
2022-11-02T11:12:43.156Z,7.80
2022-11-02T11:21:01.606Z,10.67
2022-11-02T11:23:28.384Z,8.03
2022-11-02T11:25:58.466Z,6.77
2022-11-02T11:28:25.403Z,6.50
2022-11-02T11:31:21.354Z,7.13
2022-11-02T11:33:53.570Z,8.73
2022-11-02T11:36:22.369Z,7.20
2022-11-02T11:38:50.687Z,7.50
2022-11-02T11:41:17.572Z,8.57
2022-11-02T11:43:45.064Z,11.50
2022-11-02T11:46:13.434Z,7.67
2022-11-02T11:48:41.982Z,7.90
2022-11-02T11:51:25.656Z,9.50
2022-11-02T11:54:05.375Z,10.50
2022-11-02T11:56:32.775Z,7.63
2022-11-02T11:58:59.642Z,7.83
2022-11-02T12:01:30.308Z,10.13
2022-11-02T12:03:58.447Z,8.80
2022-11-02T12:06:31.789Z,10.90
2022-11-02T12:09:21.837Z,7.97
2022-11-02T12:11:57.816Z,9.90
2022-11-02T12:14:36.766Z,9.80
2022-11-02T12:17:03.676Z,11.23
2022-11-02T12:19:49.049Z,9.50
2022-11-02T12:22:25.296Z,6.20
2022-11-02T12:25:04.245Z,8.90
2022-11-02T12:27:33.868Z,9.73
2022-11-02T12:30:00.730Z,8.10
2022-11-02T12:32:30.377Z,9.33
2022-11-02T12:35:28.299Z,6.90
2022-11-02T12:38:10.040Z,7.97
2022-11-02T12:40:36.920Z,12.87
2022-11-02T12:43:22.265Z,9.20
2022-11-02T12:45:56.750Z,10.87
2022-11-02T12:48:34.757Z,7.93
2022-11-02T12:51:13.424Z,9.67
2022-11-02T12:53:59.808Z,12.63
2022-11-02T12:56:29.518Z,7.07
2022-11-02T12:58:56.540Z,7.70
2022-11-02T13:01:36.181Z,7.13
2022-11-02T13:04:26.063Z,9.07
2022-11-02T13:07:01.045Z,8.73
2022-11-02T13:09:27.852Z,6.07
2022-11-02T13:11:58.430Z,8.07
2022-11-02T13:14:27.709Z,11.00
2022-11-02T13:17:03.429Z,11.27
2022-11-02T13:19:34.249Z,9.67
2022-11-02T13:22:01.733Z,5.67
2022-11-02T13:24:32.103Z,11.60
2022-11-02T13:27:13.781Z,9.70
2022-11-02T13:29:51.093Z,8.97
2022-11-02T13:32:33.769Z,6.53
2022-11-02T13:35:05.143Z,7.77
2022-11-02T13:37:37.920Z,7.07
2022-11-02T13:40:08.152Z,10.63
2022-11-02T13:42:53.080Z,18.87
2022-11-02T13:45:46.267Z,6.80
2022-11-02T13:48:19.310Z,6.67
2022-11-02T13:50:53.829Z,6.63
2022-11-02T13:53:27.140Z,6.93
2022-11-02T13:56:05.897Z,7.33
2022-11-02T13:58:34.537Z,7.70
2022-11-02T14:01:02.682Z,6.83
2022-11-02T14:03:35.382Z,9.80
2022-11-02T14:06:09.490Z,8.23
2022-11-02T14:08:36.400Z,6.90
2022-11-02T14:11:03.670Z,7.70
2022-11-02T14:13:49.668Z,10.50
2022-11-02T14:16:55.191Z,9.50
2022-11-02T14:19:22.420Z,9.53
2022-11-02T14:21:52.559Z,8.10
2022-11-02T14:24:34.486Z,7.23
2022-11-02T14:27:02.205Z,7.93
2022-11-02T14:29:47.180Z,6.67
2022-11-02T14:32:17.149Z,7.00
2022-11-02T14:35:04.505Z,9.03
2022-11-02T14:37:37.346Z,9.10
2022-11-02T14:40:23.906Z,8.40
2022-11-02T14:43:04.856Z,8.23
2022-11-02T14:45:50.656Z,8.33
2022-11-02T14:48:18.681Z,8.13
2022-11-02T14:50:58.018Z,6.07
2022-11-02T14:53:26.987Z,9.57
2022-11-02T14:55:54.862Z,9.70
2022-11-02T14:58:23.659Z,7.43
2022-11-02T15:00:50.537Z,9.47
2022-11-02T15:03:26.491Z,9.57
2022-11-02T15:06:04.422Z,9.10
2022-11-02T15:08:36.420Z,9.07
2022-11-02T15:11:21.800Z,16.20
2022-11-02T15:13:48.738Z,19.47
2022-11-02T15:16:16.245Z,11.33
2022-11-02T15:18:43.449Z,12.40
2022-11-02T15:21:13.095Z,8.33
2022-11-02T15:23:55.350Z,11.63
2022-11-02T15:26:28.222Z,16.10
2022-11-02T15:28:57.177Z,16.60
2022-11-02T15:31:26.272Z,11.63
2022-11-02T15:33:57.976Z,14.67
2022-11-02T15:36:51.194Z,16.20
2022-11-02T15:39:18.234Z,14.20
2022-11-02T15:41:46.351Z,13.23
2022-11-02T15:44:36.421Z,15.53
2022-11-02T15:47:03.317Z,14.13
2022-11-02T15:49:42.398Z,14.47
2022-11-02T15:52:17.630Z,22.10
2022-11-02T15:54:50.391Z,24.53
2022-11-02T15:57:24.825Z,38.87
2022-11-02T16:00:09.587Z,19.47
2022-11-02T16:03:02.972Z,25.67
2022-11-02T16:05:34.262Z,31.53
2022-11-02T16:08:16.691Z,30.97
2022-11-02T16:10:43.619Z,26.80
2022-11-02T16:13:10.342Z,28.00
2022-11-02T16:15:37.586Z,57.20
2022-11-02T16:18:05.026Z,50.33
2022-11-02T16:20:34.338Z,40.80
2022-11-02T16:23:02.402Z,17.97
2022-11-02T16:25:40.479Z,16.07
2022-11-02T16:28:30.855Z,11.70
2022-11-02T16:31:18.568Z,20.03
2022-11-02T16:33:54.190Z,24.90
2022-11-02T16:36:22.316Z,17.67
2022-11-02T16:38:57.656Z,23.40
2022-11-02T16:41:28.717Z,29.77
2022-11-02T16:43:56.773Z,13.30
2022-11-02T16:46:31.029Z,18.43
2022-11-02T16:49:03.402Z,15.53
2022-11-02T16:51:30.586Z,23.73
2022-11-02T16:54:16.537Z,24.10
2022-11-02T16:56:47.167Z,23.57
2022-11-02T16:59:14.574Z,25.80
2022-11-02T17:01:43.873Z,27.43
2022-11-02T17:04:17.792Z,24.27
2022-11-02T17:06:45.260Z,30.80
2022-11-02T17:09:23.399Z,33.63
2022-11-02T17:11:50.508Z,34.30
2022-11-02T17:14:18.651Z,35.23
2022-11-02T17:17:04.283Z,32.77
2022-11-02T17:19:39.950Z,31.33
2022-11-02T17:22:16.929Z,20.57
2022-11-02T17:24:43.663Z,18.07
2022-11-02T17:27:17.790Z,17.93
2022-11-02T17:29:44.601Z,16.80
2022-11-02T17:32:15.350Z,18.83
2022-11-02T17:34:52.079Z,19.17
2022-11-02T17:37:22.642Z,16.80
2022-11-02T17:39:49.556Z,16.50
2022-11-02T17:42:35.292Z,15.57
2022-11-02T17:45:20.923Z,32.87
2022-11-02T17:47:47.726Z,31.77
2022-11-02T17:50:14.570Z,24.47
2022-11-02T17:52:41.362Z,19.63
2022-11-02T17:55:13.175Z,21.90
2022-11-02T17:57:39.938Z,26.40
2022-11-02T18:00:07.017Z,22.97
2022-11-02T18:02:39.047Z,24.67
2022-11-02T18:05:16.165Z,17.10
2022-11-02T18:07:42.917Z,18.60
2022-11-02T18:10:10.668Z,21.13
2022-11-02T18:12:37.526Z,21.03
2022-11-02T18:15:05.017Z,15.77
2022-11-02T18:17:34.910Z,43.87
2022-11-02T18:20:02.847Z,27.27
2022-11-02T18:22:29.694Z,19.23
2022-11-02T18:24:56.660Z,27.23
2022-11-02T18:27:26.292Z,17.93
2022-11-02T18:29:55.412Z,16.57
2022-11-02T18:32:22.104Z,16.13
2022-11-02T18:34:48.903Z,17.00
2022-11-02T18:37:15.630Z,21.97
2022-11-02T18:39:42.606Z,28.03
2022-11-02T18:42:09.388Z,33.40
2022-11-02T18:44:36.123Z,33.63
2022-11-02T18:47:03.283Z,22.93
2022-11-02T18:49:30.137Z,26.10
2022-11-02T18:51:56.855Z,18.47
2022-11-02T18:54:23.702Z,21.70
2022-11-02T18:56:50.415Z,21.13
2022-11-02T18:59:17.282Z,25.73
2022-11-02T19:01:44.325Z,26.90
2022-11-02T19:04:16.988Z,30.47
2022-11-02T19:07:02.784Z,35.63
2022-11-02T19:09:31.700Z,28.37
2022-11-02T19:12:01.684Z,31.33
2022-11-02T19:14:49.839Z,27.47
2022-11-02T19:17:17.006Z,27.40
2022-11-02T19:19:45.623Z,27.47
2022-11-02T19:22:19.296Z,24.17
2022-11-02T19:24:46.269Z,28.93
2022-11-02T19:27:23.458Z,33.80
2022-11-02T19:29:50.398Z,28.97
2022-11-02T19:32:17.613Z,32.03
2022-11-02T19:34:44.857Z,56.73
2022-11-02T19:37:11.957Z,29.63
2022-11-02T19:39:39.141Z,25.13
2022-11-02T19:42:07.630Z,20.97
2022-11-02T19:44:39.624Z,23.03
2022-11-02T19:47:07.853Z,20.10
2022-11-02T19:49:34.732Z,19.97
2022-11-02T19:52:01.576Z,20.43
2022-11-02T19:54:28.533Z,23.03
2022-11-02T19:56:55.392Z,19.90
2022-11-02T19:59:22.680Z,17.03
2022-11-02T20:01:50.879Z,20.93
2022-11-02T20:04:18.040Z,17.60
2022-11-02T20:06:45.275Z,21.90
2022-11-02T20:09:19.323Z,18.73
2022-11-02T20:11:47.052Z,18.77
2022-11-02T20:14:14.757Z,22.33
2022-11-02T20:16:41.959Z,17.07
2022-11-02T20:19:09.289Z,17.20
2022-11-02T20:21:41.619Z,17.37
2022-11-02T20:24:10.228Z,25.17
2022-11-02T20:26:37.904Z,23.00
2022-11-02T20:29:05.701Z,24.73
2022-11-02T20:31:33.600Z,29.27
2022-11-02T20:34:00.770Z,24.97
2022-11-02T20:36:28.039Z,24.77
2022-11-02T20:39:03.408Z,33.67
2022-11-02T20:41:30.237Z,21.37
2022-11-02T20:43:57.216Z,21.87
2022-11-02T20:46:37.415Z,20.77
2022-11-02T20:49:19.795Z,16.30
2022-11-02T20:51:50.577Z,16.97
2022-11-02T20:54:19.860Z,20.13
2022-11-02T20:56:47.486Z,16.87
2022-11-02T20:59:14.483Z,14.40
2022-11-02T21:01:41.501Z,15.27
2022-11-02T21:04:08.473Z,16.87
2022-11-02T21:06:35.367Z,15.93
2022-11-02T21:09:09.115Z,18.03
2022-11-02T21:11:57.066Z,18.90
2022-11-02T21:14:23.938Z,17.60
2022-11-02T21:16:50.856Z,15.97
2022-11-02T21:19:17.585Z,15.77
2022-11-02T21:21:45.199Z,15.20
2022-11-02T21:24:12.199Z,16.47
2022-11-02T21:26:39.105Z,13.83
2022-11-02T21:29:05.842Z,16.77
2022-11-02T21:31:32.677Z,18.70
2022-11-02T21:33:59.440Z,15.53
2022-11-02T21:36:27.192Z,15.67
2022-11-02T21:38:54.533Z,15.10
2022-11-02T21:41:39.992Z,17.60
2022-11-02T21:44:07.446Z,15.77
2022-11-02T21:46:34.419Z,15.20
2022-11-02T21:49:01.532Z,14.63
2022-11-02T21:51:28.780Z,17.77
2022-11-02T21:53:56.901Z,18.47
2022-11-02T21:56:30.883Z,14.17
2022-11-02T21:58:57.761Z,15.17
2022-11-02T22:01:45.022Z,15.67
2022-11-02T22:04:17.455Z,13.60
2022-11-02T22:06:44.374Z,13.90
2022-11-02T22:09:11.745Z,12.17
2022-11-02T22:11:38.841Z,13.27
2022-11-02T22:14:05.736Z,13.17
2022-11-02T22:16:35.184Z,13.90
2022-11-02T22:19:02.087Z,14.27
2022-11-02T22:21:29.953Z,12.43
2022-11-02T22:23:56.897Z,13.17
2022-11-02T22:26:24.977Z,17.67
2022-11-02T22:28:51.865Z,14.77
2022-11-02T22:31:23.077Z,19.03
2022-11-02T22:33:50.846Z,18.37
2022-11-02T22:36:18.756Z,16.20
2022-11-02T22:38:48.713Z,14.33
2022-11-02T22:41:16.141Z,13.03
2022-11-02T22:43:43.126Z,16.80
2022-11-02T22:46:10.977Z,10.67
2022-11-02T22:48:37.756Z,11.03
2022-11-02T22:51:06.211Z,11.23
2022-11-02T22:53:33.460Z,11.80
2022-11-02T22:56:01.214Z,10.50
2022-11-02T22:58:28.949Z,9.97
2022-11-02T23:00:56.369Z,15.80
2022-11-02T23:03:23.366Z,15.17
2022-11-02T23:05:50.411Z,11.07
2022-11-02T23:08:17.547Z,14.23
2022-11-02T23:11:02.864Z,20.13
2022-11-02T23:13:30.115Z,16.43
2022-11-02T23:16:21.669Z,15.87
2022-11-02T23:19:14.121Z,14.93
2022-11-02T23:21:46.904Z,13.10
2022-11-02T23:24:32.466Z,10.73
2022-11-02T23:26:59.707Z,9.33
2022-11-02T23:29:45.447Z,15.07
2022-11-02T23:32:26.243Z,17.10
2022-11-02T23:35:13.965Z,18.53
2022-11-02T23:37:41.124Z,13.10
2022-11-02T23:40:08.441Z,13.30
2022-11-02T23:42:35.220Z,10.47
2022-11-02T23:45:02.054Z,10.20
2022-11-02T23:47:48.049Z,11.17
2022-11-02T23:50:35.241Z,13.23
2022-11-02T23:53:21.400Z,11.40
2022-11-02T23:56:06.886Z,9.63
2022-11-02T23:58:33.733Z,13.50
